createdAt,value
2022-09-28T00:00:00.501Z,0.00
2022-09-28T00:01:00.501Z,0.00
2022-09-28T00:02:00.599Z,0.00
2022-09-28T00:03:00.558Z,0.00
2022-09-28T00:04:00.457Z,0.00
2022-09-28T00:05:00.439Z,0.00
2022-09-28T00:06:00.419Z,0.00
2022-09-28T00:07:00.449Z,0.00
2022-09-28T00:08:00.399Z,0.00
2022-09-28T00:09:00.390Z,0.00
2022-09-28T00:10:00.382Z,0.00
2022-09-28T00:11:00.368Z,0.00
2022-09-28T00:12:00.359Z,0.00
2022-09-28T00:13:00.341Z,0.00
2022-09-28T00:14:00.322Z,0.00
2022-09-28T00:15:00.309Z,0.00
2022-09-28T00:16:00.435Z,0.00
2022-09-28T00:17:00.281Z,0.00
2022-09-28T00:18:00.289Z,0.00
2022-09-28T00:19:00.258Z,0.00
2022-09-28T00:20:00.243Z,0.00
2022-09-28T00:21:00.228Z,0.00
2022-09-28T00:22:00.218Z,0.00
2022-09-28T00:23:00.210Z,0.00
2022-09-28T00:24:00.210Z,0.00
2022-09-28T00:25:00.199Z,0.00
2022-09-28T00:26:00.190Z,0.00
2022-09-28T00:27:00.157Z,0.00
2022-09-28T00:28:00.140Z,0.00
2022-09-28T00:29:00.129Z,0.00
2022-09-28T00:30:00.152Z,0.00
2022-09-28T00:31:00.109Z,0.00
2022-09-28T00:32:00.306Z,0.00
2022-09-28T00:33:00.082Z,0.00
2022-09-28T00:34:00.081Z,0.00
2022-09-28T00:35:00.112Z,0.00
2022-09-28T00:36:00.041Z,0.00
2022-09-28T00:37:00.041Z,0.00
2022-09-28T00:38:00.022Z,0.00
2022-09-28T00:39:00.010Z,0.00
2022-09-28T00:39:59.979Z,0.00
2022-09-28T00:41:00.025Z,0.00
2022-09-28T00:41:59.960Z,0.00
2022-09-28T00:42:59.961Z,0.00
2022-09-28T00:43:59.941Z,0.00
2022-09-28T00:44:59.932Z,0.00
2022-09-28T00:46:00.032Z,0.00
2022-09-28T00:46:59.901Z,0.00
2022-09-28T00:47:59.900Z,0.00
2022-09-28T00:48:59.880Z,0.00
2022-09-28T00:49:59.860Z,0.00
2022-09-28T00:50:59.850Z,0.00
2022-09-28T00:51:59.840Z,0.00
2022-09-28T00:52:59.850Z,0.00
2022-09-28T00:53:59.810Z,0.00
2022-09-28T00:54:59.801Z,0.00
2022-09-28T00:55:59.778Z,0.00
2022-09-28T00:56:59.778Z,0.00
2022-09-28T00:57:59.760Z,0.00
2022-09-28T00:58:59.759Z,0.00
2022-09-28T00:59:59.731Z,0.00
2022-09-28T01:00:59.798Z,0.00
2022-09-28T01:02:06.756Z,0.00
2022-09-28T01:02:59.705Z,0.00
2022-09-28T01:03:59.683Z,0.00
2022-09-28T01:04:59.685Z,0.00
2022-09-28T01:05:59.665Z,0.00
2022-09-28T01:06:59.648Z,0.00
2022-09-28T01:07:59.694Z,0.00
2022-09-28T01:08:59.639Z,0.00
2022-09-28T01:09:59.598Z,0.00
2022-09-28T01:10:59.614Z,0.00
2022-09-28T01:11:59.609Z,0.00
2022-09-28T01:12:59.570Z,0.00
2022-09-28T01:13:59.573Z,0.00
2022-09-28T01:14:59.537Z,0.00
2022-09-28T01:15:59.581Z,0.00
2022-09-28T01:16:59.529Z,0.00
2022-09-28T01:17:59.523Z,0.00
2022-09-28T01:18:59.495Z,0.00
2022-09-28T01:19:59.483Z,0.00
2022-09-28T01:20:59.544Z,0.00
2022-09-28T01:21:59.456Z,0.00
2022-09-28T01:22:59.445Z,0.00
2022-09-28T01:23:59.437Z,0.00
2022-09-28T01:24:59.429Z,0.00
2022-09-28T01:25:59.393Z,0.00
2022-09-28T01:26:59.385Z,0.00
2022-09-28T01:27:59.367Z,0.00
2022-09-28T01:28:59.364Z,0.00
2022-09-28T01:29:59.358Z,0.00
2022-09-28T01:30:59.343Z,0.00
2022-09-28T01:31:59.466Z,0.00
2022-09-28T01:32:59.323Z,0.00
2022-09-28T01:33:59.293Z,0.00
2022-09-28T01:34:59.315Z,0.00
2022-09-28T01:35:59.306Z,0.00
2022-09-28T01:36:59.260Z,0.00
2022-09-28T01:37:59.235Z,0.00
2022-09-28T01:38:59.237Z,0.00
2022-09-28T01:39:59.216Z,0.00
2022-09-28T01:40:59.243Z,0.00
2022-09-28T01:41:59.197Z,0.00
2022-09-28T01:42:59.186Z,0.00
2022-09-28T01:43:59.166Z,0.00
2022-09-28T01:44:59.157Z,0.00
2022-09-28T01:45:59.181Z,0.00
2022-09-28T01:46:59.148Z,0.00
2022-09-28T01:47:59.115Z,0.00
2022-09-28T01:48:59.104Z,0.00
2022-09-28T01:49:59.089Z,0.00
2022-09-28T01:50:59.100Z,0.00
2022-09-28T01:51:59.060Z,0.00
2022-09-28T01:52:59.070Z,0.00
2022-09-28T01:53:59.045Z,0.00
2022-09-28T01:54:59.021Z,0.00
2022-09-28T01:55:59.005Z,0.00
2022-09-28T01:56:59.018Z,0.00
2022-09-28T01:57:58.984Z,0.00
2022-09-28T01:58:58.976Z,0.00
2022-09-28T01:59:58.967Z,0.00
2022-09-28T02:00:58.995Z,0.00
2022-09-28T02:01:59.021Z,0.00
2022-09-28T02:02:58.929Z,0.00
2022-09-28T02:03:58.915Z,0.00
2022-09-28T02:04:58.886Z,0.00
2022-09-28T02:05:58.886Z,0.00
2022-09-28T02:06:58.875Z,0.00
2022-09-28T02:07:58.845Z,0.00
2022-09-28T02:08:58.856Z,0.00
2022-09-28T02:09:58.827Z,0.00
2022-09-28T02:10:58.832Z,0.00
2022-09-28T02:11:58.796Z,0.00
2022-09-28T02:12:58.818Z,0.00
2022-09-28T02:13:58.775Z,0.00
2022-09-28T02:14:58.778Z,0.00
2022-09-28T02:15:58.773Z,0.00
2022-09-28T02:16:58.748Z,0.00
2022-09-28T02:17:58.737Z,0.00
2022-09-28T02:18:58.740Z,0.00
2022-09-28T02:19:58.700Z,0.00
2022-09-28T02:20:58.731Z,0.00
2022-09-28T02:21:58.665Z,0.00
2022-09-28T02:22:58.665Z,0.00
2022-09-28T02:23:58.655Z,0.00
2022-09-28T02:24:58.640Z,0.00
2022-09-28T02:25:58.623Z,0.00
2022-09-28T02:26:58.606Z,0.00
2022-09-28T02:27:58.601Z,0.00
2022-09-28T02:28:58.597Z,0.00
2022-09-28T02:29:58.576Z,0.00
2022-09-28T02:30:58.570Z,0.00
2022-09-28T02:31:58.547Z,0.00
2022-09-28T02:32:58.536Z,0.00
2022-09-28T02:33:58.532Z,0.00
2022-09-28T02:34:58.521Z,0.00
2022-09-28T02:35:58.497Z,0.00
2022-09-28T02:36:58.492Z,0.00
2022-09-28T02:37:58.472Z,0.00
2022-09-28T02:38:58.457Z,0.00
2022-09-28T02:39:58.456Z,0.00
2022-09-28T02:40:58.500Z,0.00
2022-09-28T02:41:58.424Z,0.00
2022-09-28T02:42:58.424Z,0.00
2022-09-28T02:43:58.388Z,0.00
2022-09-28T02:44:58.373Z,0.00
2022-09-28T02:45:58.419Z,0.00
2022-09-28T02:46:58.377Z,0.00
2022-09-28T02:47:58.339Z,0.00
2022-09-28T02:49:17.508Z,0.00
2022-09-28T02:49:59.337Z,0.00
2022-09-28T02:50:58.317Z,0.00
2022-09-28T02:51:58.298Z,0.00
2022-09-28T02:52:58.289Z,0.00
2022-09-28T02:53:58.286Z,0.00
2022-09-28T02:54:58.244Z,0.00
2022-09-28T02:55:58.237Z,0.00
2022-09-28T02:56:58.247Z,0.00
2022-09-28T02:57:58.208Z,0.00
2022-09-28T02:58:58.207Z,0.00
2022-09-28T02:59:58.184Z,0.00
2022-09-28T03:00:58.251Z,0.00
2022-09-28T03:01:58.218Z,0.00
2022-09-28T03:02:58.166Z,0.00
2022-09-28T03:03:58.168Z,0.00
2022-09-28T03:04:58.136Z,0.00
2022-09-28T03:05:58.116Z,0.00
2022-09-28T03:06:58.130Z,0.00
2022-09-28T03:07:58.089Z,0.00
2022-09-28T03:08:58.065Z,0.00
2022-09-28T03:09:58.066Z,0.00
2022-09-28T03:10:58.041Z,0.00
2022-09-28T03:11:58.047Z,0.00
2022-09-28T03:12:58.036Z,0.00
2022-09-28T03:13:58.005Z,0.00
2022-09-28T03:14:58.071Z,0.00
2022-09-28T03:15:58.026Z,0.00
2022-09-28T03:16:58.019Z,0.00
2022-09-28T03:17:57.991Z,0.00
2022-09-28T03:18:57.947Z,0.00
2022-09-28T03:19:57.938Z,0.00
2022-09-28T03:20:57.935Z,0.00
2022-09-28T03:21:57.914Z,0.00
2022-09-28T03:23:22.700Z,0.00
2022-09-28T03:23:58.917Z,0.00
2022-09-28T03:24:57.858Z,0.00
2022-09-28T03:25:57.873Z,0.00
2022-09-28T03:26:57.844Z,0.00
2022-09-28T03:27:57.829Z,0.00
2022-09-28T03:28:57.816Z,0.00
2022-09-28T03:29:57.799Z,0.00
2022-09-28T03:30:57.792Z,0.00
2022-09-28T03:31:57.841Z,0.00
2022-09-28T03:32:57.779Z,0.00
2022-09-28T03:33:57.769Z,0.00
2022-09-28T03:34:57.768Z,0.00
2022-09-28T03:35:57.731Z,0.00
2022-09-28T03:36:57.715Z,0.00
2022-09-28T03:37:57.722Z,0.00
2022-09-28T03:38:57.720Z,0.00
2022-09-28T03:39:57.698Z,0.00
2022-09-28T03:40:57.708Z,0.00
2022-09-28T03:41:57.698Z,0.00
2022-09-28T03:42:57.702Z,0.00
2022-09-28T03:43:57.618Z,0.00
2022-09-28T03:44:57.618Z,0.00
2022-09-28T03:45:57.697Z,0.00
2022-09-28T03:46:57.580Z,0.00
2022-09-28T03:47:57.569Z,0.00
2022-09-28T03:48:57.575Z,0.00
2022-09-28T03:49:57.558Z,0.00
2022-09-28T03:50:57.528Z,0.00
2022-09-28T03:51:57.517Z,0.00
2022-09-28T03:52:57.527Z,0.00
2022-09-28T03:53:57.488Z,0.00
2022-09-28T03:54:57.487Z,0.00
2022-09-28T03:55:57.467Z,0.00
2022-09-28T03:56:57.458Z,0.00
2022-09-28T03:57:57.439Z,0.00
2022-09-28T03:58:57.419Z,0.00
2022-09-28T03:59:57.419Z,0.00
2022-09-28T04:00:57.508Z,0.00
2022-09-28T04:01:57.442Z,0.00
2022-09-28T04:02:57.378Z,0.00
2022-09-28T04:03:57.361Z,0.00
2022-09-28T04:04:57.352Z,0.00
2022-09-28T04:05:57.368Z,0.00
2022-09-28T04:06:57.322Z,0.00
2022-09-28T04:07:57.317Z,0.00
2022-09-28T04:08:57.290Z,0.00
2022-09-28T04:09:57.289Z,0.00
2022-09-28T04:10:57.267Z,0.00
2022-09-28T04:12:03.876Z,0.00
2022-09-28T04:12:58.257Z,0.00
2022-09-28T04:13:57.248Z,0.00
2022-09-28T04:14:57.228Z,0.00
2022-09-28T04:15:57.367Z,0.00
2022-09-28T04:16:57.232Z,0.00
2022-09-28T04:17:57.227Z,0.00
2022-09-28T04:18:57.178Z,0.00
2022-09-28T04:19:57.171Z,0.00
2022-09-28T04:20:57.140Z,0.00
2022-09-28T04:21:57.129Z,0.00
2022-09-28T04:22:57.120Z,0.00
2022-09-28T04:23:57.107Z,0.00
2022-09-28T04:24:57.131Z,0.00
2022-09-28T04:25:57.079Z,0.00
2022-09-28T04:26:57.061Z,0.00
2022-09-28T04:27:57.078Z,0.00
2022-09-28T04:28:57.056Z,0.00
2022-09-28T04:29:57.079Z,0.00
2022-09-28T04:30:57.020Z,0.00
2022-09-28T04:31:57.059Z,0.00
2022-09-28T04:32:57.010Z,4.00
2022-09-28T04:33:57.039Z,4.00
2022-09-28T04:34:56.980Z,0.00
2022-09-28T04:35:56.961Z,4.00
2022-09-28T04:36:56.931Z,4.00
2022-09-28T04:37:56.948Z,4.00
2022-09-28T04:38:56.918Z,4.00
2022-09-28T04:39:56.900Z,8.00
2022-09-28T04:40:56.923Z,8.00
2022-09-28T04:41:56.880Z,8.00
2022-09-28T04:42:56.870Z,8.00
2022-09-28T04:43:56.860Z,12.00
2022-09-28T04:44:56.833Z,12.00
2022-09-28T04:45:56.915Z,12.00
2022-09-28T04:46:56.810Z,16.00
2022-09-28T04:47:56.818Z,16.00
2022-09-28T04:48:56.818Z,20.00
2022-09-28T04:49:56.773Z,24.00
2022-09-28T04:50:56.771Z,32.00
2022-09-28T04:51:56.774Z,36.00
2022-09-28T04:52:56.810Z,40.00
2022-09-28T04:53:56.744Z,52.00
2022-09-28T04:54:56.728Z,60.00
2022-09-28T04:55:56.731Z,68.00
2022-09-28T04:56:56.690Z,80.00
2022-09-28T04:57:56.679Z,92.00
2022-09-28T04:58:56.658Z,100.00
2022-09-28T04:59:56.681Z,104.00
2022-09-28T05:00:56.644Z,120.00
2022-09-28T05:01:56.694Z,124.00
2022-09-28T05:02:56.602Z,136.00
2022-09-28T05:03:56.590Z,148.00
2022-09-28T05:04:56.581Z,156.00
2022-09-28T05:05:56.558Z,172.00
2022-09-28T05:06:56.597Z,180.00
2022-09-28T05:07:56.547Z,192.00
2022-09-28T05:08:56.561Z,204.00
2022-09-28T05:09:56.521Z,220.00
2022-09-28T05:10:56.520Z,244.00
2022-09-28T05:11:56.491Z,260.00
2022-09-28T05:12:56.499Z,276.00
2022-09-28T05:13:56.461Z,296.00
2022-09-28T05:14:56.519Z,316.00
2022-09-28T05:15:59.695Z,336.00
2022-09-28T05:16:57.495Z,348.00
2022-09-28T05:17:56.413Z,364.00
2022-09-28T05:18:56.398Z,384.00
2022-09-28T05:19:56.388Z,396.00
2022-09-28T05:20:56.378Z,412.00
2022-09-28T05:21:56.379Z,428.00
2022-09-28T05:22:56.360Z,444.00
2022-09-28T05:23:56.340Z,460.00
2022-09-28T05:24:56.330Z,472.00
2022-09-28T05:25:56.321Z,484.00
2022-09-28T05:26:56.340Z,488.00
2022-09-28T05:27:56.308Z,488.00
2022-09-28T05:28:56.302Z,492.00
2022-09-28T05:29:56.261Z,512.00
2022-09-28T05:30:56.248Z,524.00
2022-09-28T05:31:56.282Z,544.00
2022-09-28T05:32:56.211Z,564.00
2022-09-28T05:33:56.219Z,580.00
2022-09-28T05:34:56.190Z,592.00
2022-09-28T05:36:00.907Z,608.00
2022-09-28T05:36:57.171Z,612.00
2022-09-28T05:37:56.156Z,600.00
2022-09-28T05:38:56.142Z,580.00
2022-09-28T05:39:56.141Z,560.00
2022-09-28T05:40:56.219Z,556.00
2022-09-28T05:41:56.104Z,552.00
2022-09-28T05:42:56.094Z,548.00
2022-09-28T05:43:56.098Z,544.00
2022-09-28T05:44:56.060Z,532.00
2022-09-28T05:45:56.191Z,528.00
2022-09-28T05:46:56.030Z,536.00
2022-09-28T05:47:56.020Z,544.00
2022-09-28T05:48:56.040Z,556.00
2022-09-28T05:49:56.022Z,568.00
2022-09-28T05:50:55.992Z,580.00
2022-09-28T05:51:56.005Z,600.00
2022-09-28T05:52:55.971Z,620.00
2022-09-28T05:53:55.973Z,644.00
2022-09-28T05:54:55.942Z,664.00
2022-09-28T05:55:55.932Z,692.00
2022-09-28T05:56:55.930Z,728.00
2022-09-28T05:57:55.892Z,772.00
2022-09-28T05:58:55.879Z,824.00
2022-09-28T05:59:55.933Z,880.00
2022-09-28T06:00:55.957Z,948.00
2022-09-28T06:01:55.872Z,1012.00
2022-09-28T06:02:55.850Z,1080.00
2022-09-28T06:03:55.810Z,1160.00
2022-09-28T06:04:55.811Z,1248.00
2022-09-28T06:05:55.833Z,1316.00
2022-09-28T06:06:55.790Z,1384.00
2022-09-28T06:07:55.777Z,1456.00
2022-09-28T06:08:55.753Z,1528.00
2022-09-28T06:09:55.763Z,1616.00
2022-09-28T06:10:55.743Z,1704.00
2022-09-28T06:11:55.723Z,1828.00
2022-09-28T06:12:55.691Z,1964.00
2022-09-28T06:13:55.689Z,2240.00
2022-09-28T06:14:55.681Z,2332.00
2022-09-28T06:15:55.662Z,2392.00
2022-09-28T06:16:55.671Z,2456.00
2022-09-28T06:17:55.649Z,2516.00
2022-09-28T06:18:55.620Z,2536.00
2022-09-28T06:19:55.614Z,2572.00
2022-09-28T06:20:55.614Z,2584.00
2022-09-28T06:21:57.554Z,2624.00
2022-09-28T06:22:55.587Z,2660.00
2022-09-28T06:23:55.575Z,2692.00
2022-09-28T06:24:55.573Z,2796.00
2022-09-28T06:25:55.541Z,2828.00
2022-09-28T06:26:55.542Z,2804.00
2022-09-28T06:27:55.523Z,2884.00
2022-09-28T06:28:55.506Z,2900.00
2022-09-28T06:29:55.491Z,3012.00
2022-09-28T06:30:55.511Z,3000.00
2022-09-28T06:31:55.451Z,2980.00
2022-09-28T06:32:55.441Z,3008.00
2022-09-28T06:33:55.453Z,2968.00
2022-09-28T06:34:56.491Z,2880.00
2022-09-28T06:35:55.413Z,3100.00
2022-09-28T06:36:55.444Z,2960.00
2022-09-28T06:37:55.382Z,3008.00
2022-09-28T06:38:55.447Z,3100.00
2022-09-28T06:39:55.353Z,2996.00
2022-09-28T06:40:55.498Z,2896.00
2022-09-28T06:41:55.332Z,2852.00
2022-09-28T06:42:55.328Z,2632.00
2022-09-28T06:43:55.304Z,2604.00
2022-09-28T06:44:55.282Z,2588.00
2022-09-28T06:45:55.401Z,2664.00
2022-09-28T06:46:55.271Z,2880.00
2022-09-28T06:47:55.253Z,3216.00
2022-09-28T06:48:55.297Z,3196.00
2022-09-28T06:49:55.238Z,3192.00
2022-09-28T06:50:55.223Z,3256.00
2022-09-28T06:51:55.203Z,3288.00
2022-09-28T06:52:55.193Z,3352.00
2022-09-28T06:53:55.162Z,3296.00
2022-09-28T06:54:55.163Z,3304.00
2022-09-28T06:55:55.165Z,3320.00
2022-09-28T06:56:55.135Z,3348.00
2022-09-28T06:57:55.131Z,3412.00
2022-09-28T06:58:55.110Z,3456.00
2022-09-28T06:59:55.094Z,3564.00
2022-09-28T07:00:55.127Z,3608.00
2022-09-28T07:01:55.208Z,3656.00
2022-09-28T07:03:02.221Z,3848.00
2022-09-28T07:03:55.910Z,3836.00
2022-09-28T07:04:55.056Z,3724.00
2022-09-28T07:05:55.045Z,3688.00
2022-09-28T07:06:55.022Z,3764.00
2022-09-28T07:07:55.014Z,3892.00
2022-09-28T07:09:13.462Z,3948.00
2022-09-28T07:09:56.008Z,3968.00
2022-09-28T07:10:54.966Z,3916.00
2022-09-28T07:11:54.944Z,3872.00
2022-09-28T07:12:54.963Z,3836.00
2022-09-28T07:13:54.933Z,3848.00
2022-09-28T07:14:55.213Z,3992.00
2022-09-28T07:15:54.939Z,4128.00
2022-09-28T07:17:12.580Z,4032.00
2022-09-28T07:18:02.175Z,3896.00
2022-09-28T07:18:55.876Z,3808.00
2022-09-28T07:19:54.848Z,3944.00
2022-09-28T07:20:54.854Z,4024.00
2022-09-28T07:22:04.188Z,4120.00
2022-09-28T07:22:56.303Z,4320.00
2022-09-28T07:23:54.809Z,4364.00
2022-09-28T07:24:54.796Z,4440.00
2022-09-28T07:25:54.884Z,4464.00
2022-09-28T07:26:54.754Z,4508.00
2022-09-28T07:27:54.738Z,4448.00
2022-09-28T07:28:54.726Z,4100.00
2022-09-28T07:29:54.725Z,3612.00
2022-09-28T07:30:54.827Z,3516.00
2022-09-28T07:31:54.687Z,3464.00
2022-09-28T07:32:54.680Z,3488.00
2022-09-28T07:33:54.667Z,4124.00
2022-09-28T07:34:58.743Z,4136.00
2022-09-28T07:35:54.637Z,4084.00
2022-09-28T07:36:54.666Z,4128.00
2022-09-28T07:37:54.608Z,3972.00
2022-09-28T07:38:54.641Z,4128.00
2022-09-28T07:39:54.606Z,4112.00
2022-09-28T07:40:54.816Z,4128.00
2022-09-28T07:41:59.629Z,4168.00
2022-09-28T07:42:55.556Z,4216.00
2022-09-28T07:43:54.538Z,4232.00
2022-09-28T07:44:54.526Z,4264.00
2022-09-28T07:45:54.565Z,3940.00
2022-09-28T07:46:54.518Z,3528.00
2022-09-28T07:47:54.488Z,3548.00
2022-09-28T07:48:54.479Z,3712.00
2022-09-28T07:49:54.476Z,3912.00
2022-09-28T07:50:54.460Z,4092.00
2022-09-28T07:51:54.428Z,4544.00
2022-09-28T07:52:54.417Z,4604.00
2022-09-28T07:53:54.399Z,4676.00
2022-09-28T07:54:54.399Z,5044.00
2022-09-28T07:55:54.399Z,5172.00
2022-09-28T07:56:54.378Z,5132.00
2022-09-28T07:57:54.369Z,4792.00
2022-09-28T07:58:54.410Z,5252.00
2022-09-28T07:59:54.339Z,5016.00
2022-09-28T08:00:54.395Z,4892.00
2022-09-28T08:01:54.359Z,4744.00
2022-09-28T08:02:54.309Z,5392.00
2022-09-28T08:03:54.278Z,5348.00
2022-09-28T08:04:54.281Z,5296.00
2022-09-28T08:05:54.267Z,5496.00
2022-09-28T08:06:54.360Z,5588.00
2022-09-28T08:07:54.228Z,5952.00
2022-09-28T08:08:54.236Z,5448.00
2022-09-28T08:09:54.199Z,5596.00
2022-09-28T08:11:54.188Z,6100.00
2022-09-28T08:12:54.181Z,6064.00
2022-09-28T08:13:54.162Z,5876.00
2022-09-28T08:14:54.149Z,5752.00
2022-09-28T08:15:54.130Z,5160.00
2022-09-28T08:16:54.153Z,5444.00
2022-09-28T08:17:54.903Z,5476.00
2022-09-28T08:18:54.079Z,5812.00
2022-09-28T08:19:54.069Z,6236.00
2022-09-28T08:20:54.060Z,6572.00
2022-09-28T08:21:54.050Z,6420.00
2022-09-28T08:22:54.030Z,6688.00
2022-09-28T08:23:54.040Z,6876.00
2022-09-28T08:24:54.007Z,7336.00
2022-09-28T08:25:54.172Z,7424.00
2022-09-28T08:26:53.988Z,7236.00
2022-09-28T08:27:53.985Z,7104.00
2022-09-28T08:28:53.960Z,6320.00
2022-09-28T08:29:53.942Z,6584.00
2022-09-28T08:30:54.145Z,6240.00
2022-09-28T08:31:57.260Z,6556.00
2022-09-28T08:32:54.919Z,7188.00
2022-09-28T08:33:53.912Z,7896.00
2022-09-28T08:34:53.960Z,7372.00
2022-09-28T08:35:53.860Z,7536.00
2022-09-28T08:36:53.872Z,7592.00
2022-09-28T08:37:55.671Z,7668.00
2022-09-28T08:38:53.830Z,7612.00
2022-09-28T08:39:53.820Z,7640.00
2022-09-28T08:40:54.015Z,7792.00
2022-09-28T08:41:53.794Z,7608.00
2022-09-28T08:42:53.802Z,7092.00
2022-09-28T08:43:53.762Z,6892.00
2022-09-28T08:44:53.761Z,6968.00
2022-09-28T08:45:53.768Z,7056.00
2022-09-28T08:46:53.724Z,7052.00
2022-09-28T08:47:53.713Z,6972.00
2022-09-28T08:49:13.302Z,6816.00
2022-09-28T08:50:53.670Z,6928.00
2022-09-28T08:51:53.669Z,7108.00
2022-09-28T08:52:53.653Z,7476.00
2022-09-28T08:53:53.778Z,7636.00
2022-09-28T08:54:53.624Z,7556.00
2022-09-28T08:55:53.604Z,7344.00
2022-09-28T08:56:53.593Z,7060.00
2022-09-28T08:57:54.534Z,6892.00
2022-09-28T08:58:53.571Z,6700.00
2022-09-28T08:59:53.594Z,6476.00
2022-09-28T09:00:53.582Z,6208.00
2022-09-28T09:01:56.058Z,6228.00
2022-09-28T09:02:53.735Z,6332.00
2022-09-28T09:03:53.503Z,6248.00
2022-09-28T09:04:53.504Z,6184.00
2022-09-28T09:05:53.491Z,6020.00
2022-09-28T09:06:53.467Z,6004.00
2022-09-28T09:07:53.454Z,6136.00
2022-09-28T09:08:53.442Z,6092.00
2022-09-28T09:09:53.426Z,5956.00
2022-09-28T09:10:53.426Z,5800.00
2022-09-28T09:11:53.415Z,5696.00
2022-09-28T09:13:53.376Z,5728.00
2022-09-28T09:14:53.364Z,5816.00
2022-09-28T09:15:53.345Z,6072.00
2022-09-28T09:16:53.404Z,6224.00
2022-09-28T09:17:53.321Z,6296.00
2022-09-28T09:18:53.320Z,6336.00
2022-09-28T09:19:53.297Z,6356.00
2022-09-28T09:20:53.286Z,6348.00
2022-09-28T09:21:53.305Z,6252.00
2022-09-28T09:22:53.281Z,6428.00
2022-09-28T09:23:53.255Z,6400.00
2022-09-28T09:24:53.236Z,6448.00
2022-09-28T09:25:53.220Z,6604.00
2022-09-28T09:26:53.226Z,6744.00
2022-09-28T09:27:53.227Z,6632.00
2022-09-28T09:28:53.203Z,6288.00
2022-09-28T09:29:53.166Z,5812.00
2022-09-28T09:30:53.170Z,5732.00
2022-09-28T09:31:53.138Z,5648.00
2022-09-28T09:32:53.125Z,5744.00
2022-09-28T09:33:53.106Z,5800.00
2022-09-28T09:34:53.105Z,5940.00
2022-09-28T09:35:53.085Z,6144.00
2022-09-28T09:36:53.066Z,6280.00
2022-09-28T09:37:56.499Z,6336.00
2022-09-28T09:38:54.058Z,6420.00
2022-09-28T09:39:53.058Z,6616.00
2022-09-28T09:40:53.112Z,6836.00
2022-09-28T09:41:53.017Z,6932.00
2022-09-28T09:42:53.017Z,7040.00
2022-09-28T09:43:52.997Z,7216.00
2022-09-28T09:44:53.007Z,7308.00
2022-09-28T09:45:52.992Z,7476.00
2022-09-28T09:46:52.946Z,7624.00
2022-09-28T09:47:52.955Z,7668.00
2022-09-28T09:48:52.928Z,7612.00
2022-09-28T09:49:52.938Z,7620.00
2022-09-28T09:50:52.896Z,7692.00
2022-09-28T09:51:52.877Z,7812.00
2022-09-28T09:52:52.868Z,7920.00
2022-09-28T09:53:52.866Z,7964.00
2022-09-28T09:54:52.859Z,8036.00
2022-09-28T09:55:52.840Z,8068.00
2022-09-28T09:56:52.829Z,8120.00
2022-09-28T09:57:52.809Z,8200.00
2022-09-28T09:58:52.798Z,8268.00
2022-09-28T09:59:52.799Z,8320.00
2022-09-28T10:00:52.849Z,8472.00
2022-09-28T10:01:52.756Z,8548.00
2022-09-28T10:02:52.800Z,8624.00
2022-09-28T10:03:52.731Z,8796.00
2022-09-28T10:04:52.730Z,9036.00
2022-09-28T10:05:52.712Z,8860.00
2022-09-28T10:06:52.698Z,9352.00
2022-09-28T10:07:54.447Z,9448.00
2022-09-28T10:08:52.670Z,9484.00
2022-09-28T10:09:52.682Z,9488.00
2022-09-28T10:10:52.645Z,9500.00
2022-09-28T10:11:52.621Z,9468.00
2022-09-28T10:12:52.618Z,9476.00
2022-09-28T10:13:52.589Z,9456.00
2022-09-28T10:14:52.599Z,8860.00
2022-09-28T10:15:52.591Z,8900.00
2022-09-28T10:16:52.595Z,9616.00
2022-09-28T10:17:52.540Z,9644.00
2022-09-28T10:18:52.591Z,9564.00
2022-09-28T10:19:52.524Z,9168.00
2022-09-28T10:20:52.532Z,9452.00
2022-09-28T10:21:52.493Z,10116.00
2022-09-28T10:22:52.483Z,9564.00
2022-09-28T10:23:52.469Z,9508.00
2022-09-28T10:24:52.456Z,9436.00
2022-09-28T10:25:52.470Z,9352.00
2022-09-28T10:26:52.428Z,9900.00
2022-09-28T10:27:52.431Z,10120.00
2022-09-28T10:28:52.403Z,8656.00
2022-09-28T10:29:52.395Z,8612.00
2022-09-28T10:30:52.464Z,8712.00
2022-09-28T10:31:52.372Z,8580.00
2022-09-28T10:32:52.363Z,8148.00
2022-09-28T10:33:52.331Z,7544.00
2022-09-28T10:34:52.362Z,7172.00
2022-09-28T10:35:52.324Z,7184.00
2022-09-28T10:36:52.303Z,7188.00
2022-09-28T10:37:52.332Z,7072.00
2022-09-28T10:38:52.287Z,7048.00
2022-09-28T10:39:52.261Z,6924.00
2022-09-28T10:40:52.285Z,6764.00
2022-09-28T10:41:52.242Z,6768.00
2022-09-28T10:42:52.233Z,6740.00
2022-09-28T10:43:57.401Z,6596.00
2022-09-28T10:44:53.213Z,6420.00
2022-09-28T10:45:52.228Z,6028.00
2022-09-28T10:46:52.162Z,5580.00
2022-09-28T10:47:52.213Z,5176.00
2022-09-28T10:48:52.151Z,4816.00
2022-09-28T10:49:52.134Z,4584.00
2022-09-28T10:50:52.125Z,4348.00
2022-09-28T10:51:52.145Z,4152.00
2022-09-28T10:52:52.151Z,4012.00
2022-09-28T10:53:52.078Z,3872.00
2022-09-28T10:54:52.067Z,3740.00
2022-09-28T10:55:52.057Z,3564.00
2022-09-28T10:56:52.065Z,3388.00
2022-09-28T10:57:52.055Z,3204.00
2022-09-28T10:58:52.014Z,3024.00
2022-09-28T10:59:51.994Z,2852.00
2022-09-28T11:00:52.124Z,2752.00
2022-09-28T11:01:52.025Z,2696.00
2022-09-28T11:02:52.114Z,2704.00
2022-09-28T11:03:51.955Z,2716.00
2022-09-28T11:04:51.932Z,2708.00
2022-09-28T11:05:51.922Z,2676.00
2022-09-28T11:06:51.935Z,2676.00
2022-09-28T11:07:51.899Z,2700.00
2022-09-28T11:08:51.905Z,2688.00
2022-09-28T11:09:51.870Z,2672.00
2022-09-28T11:10:51.856Z,2728.00
2022-09-28T11:11:51.847Z,2836.00
2022-09-28T11:12:51.910Z,2968.00
2022-09-28T11:13:51.827Z,3068.00
2022-09-28T11:14:51.805Z,3148.00
2022-09-28T11:15:52.016Z,3196.00
2022-09-28T11:16:51.888Z,3256.00
2022-09-28T11:17:51.838Z,3312.00
2022-09-28T11:18:51.755Z,3348.00
2022-09-28T11:19:51.797Z,3424.00
2022-09-28T11:20:51.795Z,3512.00
2022-09-28T11:21:51.716Z,3612.00
2022-09-28T11:22:53.522Z,3760.00
2022-09-28T11:23:51.689Z,3940.00
2022-09-28T11:24:51.687Z,4124.00
2022-09-28T11:25:51.658Z,4324.00
2022-09-28T11:26:51.648Z,4540.00
2022-09-28T11:27:51.690Z,4744.00
2022-09-28T11:28:51.751Z,4936.00
2022-09-28T11:29:51.628Z,5120.00
2022-09-28T11:30:51.652Z,5268.00
2022-09-28T11:31:51.586Z,5404.00
2022-09-28T11:32:51.577Z,5552.00
2022-09-28T11:33:51.557Z,5704.00
2022-09-28T11:35:00.064Z,5828.00
2022-09-28T11:35:52.528Z,5964.00
2022-09-28T11:36:51.618Z,6056.00
2022-09-28T11:37:51.587Z,6100.00
2022-09-28T11:38:51.511Z,6128.00
2022-09-28T11:39:51.510Z,6108.00
2022-09-28T11:40:51.503Z,6036.00
2022-09-28T11:41:51.460Z,5916.00
2022-09-28T11:42:51.486Z,5772.00
2022-09-28T11:43:51.438Z,5648.00
2022-09-28T11:44:51.420Z,5572.00
2022-09-28T11:45:51.507Z,5580.00
2022-09-28T11:46:51.389Z,5572.00
2022-09-28T11:47:51.620Z,5568.00
2022-09-28T11:48:51.359Z,5576.00
2022-09-28T11:49:51.339Z,5664.00
2022-09-28T11:50:51.335Z,5680.00
2022-09-28T11:51:51.338Z,5692.00
2022-09-28T11:52:51.350Z,5644.00
2022-09-28T11:53:51.298Z,5588.00
2022-09-28T11:54:51.290Z,5560.00
2022-09-28T11:55:51.281Z,5612.00
2022-09-28T11:56:51.278Z,5752.00
2022-09-28T11:57:51.317Z,5852.00
2022-09-28T11:58:51.293Z,5996.00
2022-09-28T11:59:51.231Z,6120.00
2022-09-28T12:00:51.211Z,6268.00
2022-09-28T12:01:51.221Z,6456.00
2022-09-28T12:02:51.251Z,6616.00
2022-09-28T12:03:51.219Z,6780.00
2022-09-28T12:04:51.151Z,6924.00
2022-09-28T12:05:51.139Z,7024.00
2022-09-28T12:06:51.129Z,7096.00
2022-09-28T12:07:51.130Z,7144.00
2022-09-28T12:08:51.113Z,7204.00
2022-09-28T12:09:51.093Z,7236.00
2022-09-28T12:10:51.069Z,7300.00
2022-09-28T12:11:51.067Z,7400.00
2022-09-28T12:12:51.062Z,7496.00
2022-09-28T12:13:51.072Z,7592.00
2022-09-28T12:14:51.020Z,7732.00
2022-09-28T12:16:23.061Z,7896.00
2022-09-28T12:17:05.823Z,8016.00
2022-09-28T12:17:52.041Z,8148.00
2022-09-28T12:18:51.018Z,8208.00
2022-09-28T12:19:50.962Z,8532.00
2022-09-28T12:20:51.128Z,8724.00
2022-09-28T12:21:50.933Z,8832.00
2022-09-28T12:22:50.922Z,8996.00
2022-09-28T12:23:50.923Z,9192.00
2022-09-28T12:24:50.951Z,9324.00
2022-09-28T12:25:50.883Z,9176.00
2022-09-28T12:26:50.881Z,9016.00
2022-09-28T12:27:50.868Z,8924.00
2022-09-28T12:28:50.862Z,8928.00
2022-09-28T12:29:50.830Z,8848.00
2022-09-28T12:30:50.838Z,8944.00
2022-09-28T12:31:50.810Z,9228.00
2022-09-28T12:32:50.791Z,8980.00
2022-09-28T12:33:50.792Z,9032.00
2022-09-28T12:34:50.765Z,8820.00
2022-09-28T12:35:50.754Z,8728.00
2022-09-28T12:36:50.754Z,8696.00